sensor_id;sensor_type;location;lat;lon;timestamp;pressure;altitude;pressure_sealevel;temperature;humidity
22311;BME280;11323;49.610;11.016;2023-04-07T00:02:07;98201.13;;;13.81;66.95
22311;BME280;11323;49.610;11.016;2023-04-07T00:07:07;98195.22;;;13.79;67.22
22311;BME280;11323;49.610;11.016;2023-04-07T00:12:08;98193.41;;;13.79;66.75
22311;BME280;11323;49.610;11.016;2023-04-07T00:17:08;98203.56;;;13.82;66.37
22311;BME280;11323;49.610;11.016;2023-04-07T00:22:08;98214.22;;;13.81;66.58
22311;BME280;11323;49.610;11.016;2023-04-07T00:27:10;98201.44;;;13.78;66.77
22311;BME280;11323;49.610;11.016;2023-04-07T00:32:10;98208.13;;;13.80;66.99
22311;BME280;11323;49.610;11.016;2023-04-07T00:37:11;98194.56;;;13.77;66.61
22311;BME280;11323;49.610;11.016;2023-04-07T00:42:11;98198.16;;;13.75;67.24
22311;BME280;11323;49.610;11.016;2023-04-07T00:47:11;98201.63;;;13.76;66.95
22311;BME280;11323;49.610;11.016;2023-04-07T00:52:13;98198.16;;;13.75;66.97
22311;BME280;11323;49.610;11.016;2023-04-07T00:57:13;98183.41;;;13.74;66.87
22311;BME280;11323;49.610;11.016;2023-04-07T01:02:28;98177.56;;;13.72;67.36
22311;BME280;11323;49.610;11.016;2023-04-07T01:07:43;98177.88;;;13.69;66.69
22311;BME280;11323;49.610;11.016;2023-04-07T01:18:12;98164.94;;;13.68;66.80
22311;BME280;11323;49.610;11.016;2023-04-07T01:23:24;98165.94;;;13.67;66.59
22311;BME280;11323;49.610;11.016;2023-04-07T01:28:45;98166.25;;;13.64;67.42
22311;BME280;11323;49.610;11.016;2023-04-07T01:33:49;98149.69;;;13.55;66.74
22311;BME280;11323;49.610;11.016;2023-04-07T01:38:51;98159.53;;;13.61;66.91
22311;BME280;11323;49.610;11.016;2023-04-07T01:43:52;98152.66;;;13.60;67.45
22311;BME280;11323;49.610;11.016;2023-04-07T01:48:54;98145.78;;;13.59;67.08
22311;BME280;11323;49.610;11.016;2023-04-07T01:53:55;98155.59;;;13.57;67.22
22311;BME280;11323;49.610;11.016;2023-04-07T01:58:56;98152.31;;;13.55;66.99
22311;BME280;11323;49.610;11.016;2023-04-07T02:04:22;98148.72;;;13.56;66.84
22311;BME280;11323;49.610;11.016;2023-04-07T02:09:26;98140.38;;;13.52;67.40
22311;BME280;11323;49.610;11.016;2023-04-07T02:14:28;98139.53;;;13.52;67.53
22311;BME280;11323;49.610;11.016;2023-04-07T02:19:36;98149.69;;;13.55;67.23
22311;BME280;11323;49.610;11.016;2023-04-07T02:24:40;98143.97;;;13.51;67.52
22311;BME280;11323;49.610;11.016;2023-04-07T02:29:42;98143.16;;;13.51;67.52
22311;BME280;11323;49.610;11.016;2023-04-07T02:34:42;98135.63;;;13.48;67.05
22311;BME280;11323;49.610;11.016;2023-04-07T02:39:42;98126.94;;;13.47;67.58
22311;BME280;11323;49.610;11.016;2023-04-07T02:44:43;98113.06;;;13.47;67.52
22311;BME280;11323;49.610;11.016;2023-04-07T02:49:43;98119.25;;;13.46;67.29
22311;BME280;11323;49.610;11.016;2023-04-07T02:54:43;98118.59;;;13.43;67.18
22311;BME280;11323;49.610;11.016;2023-04-07T02:59:45;98124.50;;;13.46;67.05
22311;BME280;11323;49.610;11.016;2023-04-07T03:04:50;98122.56;;;13.39;67.46
22311;BME280;11323;49.610;11.016;2023-04-07T03:09:51;98123.19;;;13.41;66.94
22311;BME280;11323;49.610;11.016;2023-04-07T03:14:52;98123.50;;;13.38;66.94
22311;BME280;11323;49.610;11.016;2023-04-07T03:19:55;98127.78;;;13.39;67.61
22311;BME280;11323;49.610;11.016;2023-04-07T03:24:56;98127.63;;;13.41;67.12
22311;BME280;11323;49.610;11.016;2023-04-07T03:29:58;98113.34;;;13.35;67.25
22311;BME280;11323;49.610;11.016;2023-04-07T03:35:00;98123.50;;;13.38;67.13
22311;BME280;11323;49.610;11.016;2023-04-07T03:40:01;98126.13;;;13.38;67.15
22311;BME280;11323;49.610;11.016;2023-04-07T03:45:09;98113.34;;;13.35;67.75
22311;BME280;11323;49.610;11.016;2023-04-07T03:50:14;98119.38;;;13.36;66.99
22311;BME280;11323;49.610;11.016;2023-04-07T03:55:25;98113.66;;;13.32;67.23
22311;BME280;11323;49.610;11.016;2023-04-07T04:00:30;98116.94;;;13.34;67.08
22311;BME280;11323;49.610;11.016;2023-04-07T04:05:43;98117.91;;;13.33;66.94
22311;BME280;11323;49.610;11.016;2023-04-07T04:10:50;98113.66;;;13.32;67.18
22311;BME280;11323;49.610;11.016;2023-04-07T04:15:52;98104.81;;;13.33;67.08
22311;BME280;11323;49.610;11.016;2023-04-07T04:20:53;98107.63;;;13.32;67.03
22311;BME280;11323;49.610;11.016;2023-04-07T04:25:54;98096.66;;;13.28;67.22
22311;BME280;11323;49.610;11.016;2023-04-07T04:30:55;98098.63;;;13.26;67.14
22311;BME280;11323;49.610;11.016;2023-04-07T04:35:55;98081.91;;;13.19;67.41
22311;BME280;11323;49.610;11.016;2023-04-07T04:40:57;98091.88;;;13.23;67.17
22311;BME280;11323;49.610;11.016;2023-04-07T04:46:02;98092.91;;;13.22;67.47
22311;BME280;11323;49.610;11.016;2023-04-07T04:51:07;98102.22;;;13.25;67.07
22311;BME280;11323;49.610;11.016;2023-04-07T04:56:08;98095.34;;;13.24;66.92
22311;BME280;11323;49.610;11.016;2023-04-07T05:01:19;98088.28;;;13.16;67.56
22311;BME280;11323;49.610;11.016;2023-04-07T05:06:26;98099.75;;;13.23;67.04
22311;BME280;11323;49.610;11.016;2023-04-07T05:11:30;98106.63;;;13.24;67.25
22311;BME280;11323;49.610;11.016;2023-04-07T05:16:31;98104.16;;;13.23;67.17
22311;BME280;11323;49.610;11.016;2023-04-07T05:21:31;98098.94;;;13.23;67.17
22311;BME280;11323;49.610;11.016;2023-04-07T05:26:36;98108.25;;;13.17;67.81
22311;BME280;11323;49.610;11.016;2023-04-07T05:31:38;98123.78;;;13.19;66.68
22311;BME280;11323;49.610;11.016;2023-04-07T05:36:44;98113.97;;;13.21;67.03
22311;BME280;11323;49.610;11.016;2023-04-07T05:41:44;98113.31;;;13.19;67.03
22311;BME280;11323;49.610;11.016;2023-04-07T05:46:46;98105.63;;;13.17;67.09
22311;BME280;11323;49.610;11.016;2023-04-07T05:51:48;98110.38;;;13.22;67.11
22311;BME280;11323;49.610;11.016;2023-04-07T05:56:49;98107.75;;;13.22;67.27
22311;BME280;11323;49.610;11.016;2023-04-07T06:01:50;98097.63;;;13.19;67.20
22311;BME280;11323;49.610;11.016;2023-04-07T06:06:50;98100.09;;;13.20;66.75
22311;BME280;11323;49.610;11.016;2023-04-07T06:11:54;98104.47;;;13.20;67.42
22311;BME280;11323;49.610;11.016;2023-04-07T06:16:56;98106.97;;;13.21;66.98
22311;BME280;11323;49.610;11.016;2023-04-07T06:21:58;98101.72;;;13.21;66.98
22311;BME280;11323;49.610;11.016;2023-04-07T06:26:59;98102.53;;;13.22;67.04
22311;BME280;11323;49.610;11.016;2023-04-07T06:32:00;98102.69;;;13.20;67.27
22311;BME280;11323;49.610;11.016;2023-04-07T06:37:01;98096.63;;;13.20;66.98
22311;BME280;11323;49.610;11.016;2023-04-07T06:42:04;98109.41;;;13.23;67.20
22311;BME280;11323;49.610;11.016;2023-04-07T06:47:10;98113.97;;;13.29;67.45
22311;BME280;11323;49.610;11.016;2023-04-07T06:52:11;98106.16;;;13.37;67.36
22311;BME280;11323;49.610;11.016;2023-04-07T06:57:11;98110.75;;;13.52;67.69
22311;BME280;11323;49.610;11.016;2023-04-07T07:02:12;98088.47;;;13.64;68.90
22311;BME280;11323;49.610;11.016;2023-04-07T07:07:12;98083.59;;;13.69;68.77
22311;BME280;11323;49.610;11.016;2023-04-07T07:12:12;98091.44;;;13.69;68.32
22311;BME280;11323;49.610;11.016;2023-04-07T07:17:14;98092.09;;;13.71;67.66
22311;BME280;11323;49.610;11.016;2023-04-07T07:22:14;98098.97;;;13.72;67.41
22311;BME280;11323;49.610;11.016;2023-04-07T07:27:15;98102.22;;;13.74;67.53
22311;BME280;11323;49.610;11.016;2023-04-07T07:32:15;98109.09;;;13.75;67.27
22311;BME280;11323;49.610;11.016;2023-04-07T07:37:16;98108.13;;;13.77;67.62
22311;BME280;11323;49.610;11.016;2023-04-07T07:42:17;98112.38;;;13.78;67.72
22311;BME280;11323;49.610;11.016;2023-04-07T07:47:17;98120.41;;;13.76;67.05
22311;BME280;11323;49.610;11.016;2023-04-07T07:52:18;98105.84;;;13.73;67.33
22311;BME280;11323;49.610;11.016;2023-04-07T07:57:20;98110.09;;;13.74;67.21
22311;BME280;11323;49.610;11.016;2023-04-07T08:02:20;98100.63;;;13.73;67.10
22311;BME280;11323;49.610;11.016;2023-04-07T08:07:21;98100.91;;;13.79;67.51
22311;BME280;11323;49.610;11.016;2023-04-07T08:12:21;98101.91;;;13.78;67.46
22311;BME280;11323;49.610;11.016;2023-04-07T08:17:22;98093.25;;;13.77;67.40
22311;BME280;11323;49.610;11.016;2023-04-07T08:22:22;98094.69;;;13.80;66.89
22311;BME280;11323;49.610;11.016;2023-04-07T08:27:22;98095.34;;;13.82;67.25
22311;BME280;11323;49.610;11.016;2023-04-07T08:32:23;98088.47;;;13.81;67.37
22311;BME280;11323;49.610;11.016;2023-04-07T08:37:23;98096.34;;;13.81;66.68
22311;BME280;11323;49.610;11.016;2023-04-07T08:42:27;98094.88;;;13.78;66.89
22311;BME280;11323;49.610;11.016;2023-04-07T08:47:33;98082.91;;;13.75;67.25
22311;BME280;11323;49.610;11.016;2023-04-07T08:52:43;98092.41;;;13.77;66.74
22311;BME280;11323;49.610;11.016;2023-04-07T08:57:44;98094.22;;;13.76;67.01
22311;BME280;11323;49.610;11.016;2023-04-07T09:02:46;98094.53;;;13.73;66.86
22311;BME280;11323;49.610;11.016;2023-04-07T09:07:48;98089.63;;;13.70;66.82
22311;BME280;11323;49.610;11.016;2023-04-07T09:12:48;98104.22;;;13.72;66.71
22311;BME280;11323;49.610;11.016;2023-04-07T09:17:49;98103.84;;;13.75;66.88
22311;BME280;11323;49.610;11.016;2023-04-07T09:22:50;98094.38;;;13.74;67.10
22311;BME280;11323;49.610;11.016;2023-04-07T09:28:00;98089.78;;;13.77;67.25
22311;BME280;11323;49.610;11.016;2023-04-07T09:33:01;98080.31;;;13.67;66.90
22311;BME280;11323;49.610;11.016;2023-04-07T09:43:03;98090.44;;;13.79;67.04
22311;BME280;11323;49.610;11.016;2023-04-07T09:48:05;98075.38;;;13.81;66.72
22311;BME280;11323;49.610;11.016;2023-04-07T09:53:06;98066.88;;;13.79;66.44
22311;BME280;11323;49.610;11.016;2023-04-07T09:58:07;98067.53;;;13.81;66.76
22311;BME280;11323;49.610;11.016;2023-04-07T10:03:08;98064.91;;;13.81;66.78
22311;BME280;11323;49.610;11.016;2023-04-07T10:08:09;98055.22;;;13.81;66.39
22311;BME280;11323;49.610;11.016;2023-04-07T10:13:10;98059.00;;;13.79;66.72
22311;BME280;11323;49.610;11.016;2023-04-07T10:18:11;98059.66;;;13.81;66.69
22311;BME280;11323;49.610;11.016;2023-04-07T10:23:18;98056.06;;;13.82;66.40
22311;BME280;11323;49.610;11.016;2023-04-07T10:28:22;98054.75;;;13.78;66.34
22311;BME280;11323;49.610;11.016;2023-04-07T10:33:47;98058.84;;;13.80;66.83
22311;BME280;11323;49.610;11.016;2023-04-07T10:44:45;98051.47;;;13.75;66.48
22311;BME280;11323;49.610;11.016;2023-04-07T10:50:15;98067.19;;;13.75;67.00
22311;BME280;11323;49.610;11.016;2023-04-07T10:55:30;98055.72;;;13.77;66.82
22311;BME280;11323;49.610;11.016;2023-04-07T11:00:31;98056.91;;;13.74;66.87
22311;BME280;11323;49.610;11.016;2023-04-07T11:05:31;98038.41;;;13.67;66.69
22311;BME280;11323;49.610;11.016;2023-04-07T11:10:34;98043.00;;;13.73;66.47
22311;BME280;11323;49.610;11.016;2023-04-07T11:15:36;98038.56;;;13.74;66.71
22311;BME280;11323;49.610;11.016;2023-04-07T11:20:47;98032.00;;;13.70;67.20
22311;BME280;11323;49.610;11.016;2023-04-07T11:25:48;98032.53;;;13.73;66.72
22311;BME280;11323;49.610;11.016;2023-04-07T11:30:51;98031.03;;;13.71;67.21
22311;BME280;11323;49.610;11.016;2023-04-07T11:35:57;98021.53;;;13.70;66.93
22311;BME280;11323;49.610;11.016;2023-04-07T11:41:17;98025.31;;;13.67;66.97
22311;BME280;11323;49.610;11.016;2023-04-07T11:46:17;98026.28;;;13.66;66.96
22311;BME280;11323;49.610;11.016;2023-04-07T11:51:20;98027.13;;;13.67;67.11
22311;BME280;11323;49.610;11.016;2023-04-07T11:56:23;98028.25;;;13.64;67.30
22311;BME280;11323;49.610;11.016;2023-04-07T12:01:38;98023.03;;;13.64;67.12
22311;BME280;11323;49.610;11.016;2023-04-07T12:06:39;98014.19;;;13.65;67.51
22311;BME280;11323;49.610;11.016;2023-04-07T12:11:48;98017.47;;;13.67;66.98
22311;BME280;11323;49.610;11.016;2023-04-07T12:16:49;98013.84;;;13.68;67.17
22311;BME280;11323;49.610;11.016;2023-04-07T12:21:49;98012.22;;;13.67;66.98
22311;BME280;11323;49.610;11.016;2023-04-07T12:26:50;98009.78;;;13.66;67.20
22311;BME280;11323;49.610;11.016;2023-04-07T12:31:50;98010.25;;;13.69;67.11
22311;BME280;11323;49.610;11.016;2023-04-07T12:36:51;98003.72;;;13.65;67.20
22311;BME280;11323;49.610;11.016;2023-04-07T12:41:51;98009.41;;;13.69;67.65
22311;BME280;11323;49.610;11.016;2023-04-07T12:46:52;98014.19;;;13.73;67.69
22311;BME280;11323;49.610;11.016;2023-04-07T12:51:52;98005.50;;;13.73;67.59
22311;BME280;11323;49.610;11.016;2023-04-07T12:56:53;98006.31;;;13.73;67.10
22311;BME280;11323;49.610;11.016;2023-04-07T13:01:53;98003.38;;;13.68;67.22
22311;BME280;11323;49.610;11.016;2023-04-07T13:06:54;98013.03;;;13.76;67.57
22311;BME280;11323;49.610;11.016;2023-04-07T13:11:54;98014.81;;;13.75;67.42
22311;BME280;11323;49.610;11.016;2023-04-07T13:16:55;98024.31;;;13.77;67.46
22311;BME280;11323;49.610;11.016;2023-04-07T13:21:56;98023.31;;;13.78;67.64
22311;BME280;11323;49.610;11.016;2023-04-07T13:26:56;98017.59;;;13.74;67.73
22311;BME280;11323;49.610;11.016;2023-04-07T13:32:07;98008.63;;;13.68;67.45
22311;BME280;11323;49.610;11.016;2023-04-07T13:37:08;98020.03;;;13.75;67.42
22311;BME280;11323;49.610;11.016;2023-04-07T13:42:09;98011.88;;;13.79;67.67
22311;BME280;11323;49.610;11.016;2023-04-07T13:47:09;98021.34;;;13.80;68.06
22311;BME280;11323;49.610;11.016;2023-04-07T13:52:10;98018.09;;;13.78;67.64
22311;BME280;11323;49.610;11.016;2023-04-07T13:57:10;98015.44;;;13.86;68.18
22311;BME280;11323;49.610;11.016;2023-04-07T14:02:11;98021.31;;;13.88;67.93
22311;BME280;11323;49.610;11.016;2023-04-07T14:07:15;98022.50;;;13.85;67.80
22311;BME280;11323;49.610;11.016;2023-04-07T14:12:15;98021.31;;;13.88;67.58
22311;BME280;11323;49.610;11.016;2023-04-07T14:17:16;98023.16;;;13.87;67.49
22311;BME280;11323;49.610;11.016;2023-04-07T14:22:17;98018.06;;;13.86;67.93
22311;BME280;11323;49.610;11.016;2023-04-07T14:27:17;98021.31;;;13.88;67.35
22311;BME280;11323;49.610;11.016;2023-04-07T14:32:20;98025.59;;;13.89;67.94
22311;BME280;11323;49.610;11.016;2023-04-07T14:37:21;98015.09;;;13.89;67.74
22311;BME280;11323;49.610;11.016;2023-04-07T14:42:25;98017.72;;;13.89;67.55
22311;BME280;11323;49.610;11.016;2023-04-07T14:47:25;98022.31;;;13.87;67.47
22311;BME280;11323;49.610;11.016;2023-04-07T14:52:26;98019.53;;;13.88;67.79
22311;BME280;11323;49.610;11.016;2023-04-07T14:57:26;98016.75;;;13.90;67.45
22311;BME280;11323;49.610;11.016;2023-04-07T15:02:27;98016.09;;;13.88;67.79
22311;BME280;11323;49.610;11.016;2023-04-07T15:07:27;98027.22;;;13.90;67.59
22311;BME280;11323;49.610;11.016;2023-04-07T15:12:28;98019.38;;;13.90;67.78
22311;BME280;11323;49.610;11.016;2023-04-07T15:17:30;98015.59;;;13.93;67.85
22311;BME280;11323;49.610;11.016;2023-04-07T15:22:30;98025.41;;;13.90;67.58
22311;BME280;11323;49.610;11.016;2023-04-07T15:27:31;98031.16;;;13.94;67.55
22311;BME280;11323;49.610;11.016;2023-04-07T15:32:31;98029.66;;;13.92;67.75
22311;BME280;11323;49.610;11.016;2023-04-07T15:37:31;98024.28;;;13.93;67.91
22311;BME280;11323;49.610;11.016;2023-04-07T15:42:32;98022.63;;;13.92;67.59
22311;BME280;11323;49.610;11.016;2023-04-07T15:47:38;98026.91;;;13.93;67.99
22311;BME280;11323;49.610;11.016;2023-04-07T15:52:40;98028.53;;;13.94;67.47
22311;BME280;11323;49.610;11.016;2023-04-07T15:57:40;98025.59;;;13.89;68.11
22311;BME280;11323;49.610;11.016;2023-04-07T16:02:41;98032.44;;;13.98;67.68
22311;BME280;11323;49.610;11.016;2023-04-07T16:07:41;98032.94;;;13.94;67.67
22311;BME280;11323;49.610;11.016;2023-04-07T16:12:41;98033.41;;;13.97;67.58
22311;BME280;11323;49.610;11.016;2023-04-07T16:17:45;98034.06;;;13.99;67.61
22311;BME280;11323;49.610;11.016;2023-04-07T16:22:46;98043.75;;;13.99;67.54
22311;BME280;11323;49.610;11.016;2023-04-07T16:27:47;98045.53;;;13.98;67.51
22311;BME280;11323;49.610;11.016;2023-04-07T16:32:48;98043.88;;;13.97;67.77
22311;BME280;11323;49.610;11.016;2023-04-07T16:37:48;98049.13;;;13.97;67.61
22311;BME280;11323;49.610;11.016;2023-04-07T16:42:49;98047.50;;;13.96;67.63
22311;BME280;11323;49.610;11.016;2023-04-07T16:47:49;98058.81;;;13.97;67.49
22311;BME280;11323;49.610;11.016;2023-04-07T16:52:50;98061.59;;;13.95;67.80
22311;BME280;11323;49.610;11.016;2023-04-07T16:57:50;98067.66;;;13.96;67.49
22311;BME280;11323;49.610;11.016;2023-04-07T17:02:51;98070.94;;;13.98;67.54
22311;BME280;11323;49.610;11.016;2023-04-07T17:07:52;98069.47;;;13.95;67.88
22311;BME280;11323;49.610;11.016;2023-04-07T17:12:52;98083.38;;;13.96;67.59
22311;BME280;11323;49.610;11.016;2023-04-07T17:17:55;98083.19;;;13.97;67.79
22311;BME280;11323;49.610;11.016;2023-04-07T17:22:55;98083.69;;;13.93;67.75
22311;BME280;11323;49.610;11.016;2023-04-07T17:27:56;98093.03;;;13.95;67.92
22311;BME280;11323;49.610;11.016;2023-04-07T17:32:56;98100.72;;;13.97;67.55
22311;BME280;11323;49.610;11.016;2023-04-07T17:37:56;98103.84;;;13.92;67.62
22311;BME280;11323;49.610;11.016;2023-04-07T17:43:01;98109.91;;;13.93;67.31
22311;BME280;11323;49.610;11.016;2023-04-07T17:48:02;98108.25;;;13.92;67.35
22311;BME280;11323;49.610;11.016;2023-04-07T17:53:03;98108.44;;;13.90;68.03
22311;BME280;11323;49.610;11.016;2023-04-07T17:58:03;98122.84;;;13.94;67.40
22311;BME280;11323;49.610;11.016;2023-04-07T18:03:03;98131.50;;;13.95;67.58
22311;BME280;11323;49.610;11.016;2023-04-07T18:08:04;98118.25;;;13.88;67.63
22311;BME280;11323;49.610;11.016;2023-04-07T18:13:05;98125.47;;;13.86;67.72
22311;BME280;11323;49.610;11.016;2023-04-07T18:18:06;98135.63;;;13.89;67.66
22311;BME280;11323;49.610;11.016;2023-04-07T18:23:06;98141.84;;;13.88;67.52
22311;BME280;11323;49.610;11.016;2023-04-07T18:28:07;98148.88;;;13.87;67.52
22311;BME280;11323;49.610;11.016;2023-04-07T18:33:07;98166.06;;;13.90;67.75
22311;BME280;11323;49.610;11.016;2023-04-07T18:38:08;98166.56;;;13.85;67.64
22311;BME280;11323;49.610;11.016;2023-04-07T18:43:08;98173.78;;;13.83;68.19
22311;BME280;11323;49.610;11.016;2023-04-07T18:48:08;98188.34;;;13.86;67.51
22311;BME280;11323;49.610;11.016;2023-04-07T18:53:10;98183.09;;;13.86;67.98
22311;BME280;11323;49.610;11.016;2023-04-07T18:58:11;98185.72;;;13.86;67.89
22311;BME280;11323;49.610;11.016;2023-04-07T19:03:11;98193.56;;;13.86;67.79
22311;BME280;11323;49.610;11.016;2023-04-07T19:08:11;98200.63;;;13.85;67.35
22311;BME280;11323;49.610;11.016;2023-04-07T19:13:12;98204.88;;;13.86;67.34
22311;BME280;11323;49.610;11.016;2023-04-07T19:18:14;98204.06;;;13.86;67.51
22311;BME280;11323;49.610;11.016;2023-04-07T19:23:15;98212.88;;;13.85;67.41
22311;BME280;11323;49.610;11.016;2023-04-07T19:28:15;98216.16;;;13.87;67.39
22311;BME280;11323;49.610;11.016;2023-04-07T19:33:15;98211.28;;;13.84;67.88
22311;BME280;11323;49.610;11.016;2023-04-07T19:38:16;98237.13;;;13.87;67.54
22311;BME280;11323;49.610;11.016;2023-04-07T19:43:16;98237.47;;;13.84;67.59
22311;BME280;11323;49.610;11.016;2023-04-07T19:48:16;98244.31;;;13.85;67.75
22311;BME280;11323;49.610;11.016;2023-04-07T19:53:17;98238.59;;;13.81;67.54
22311;BME280;11323;49.610;11.016;2023-04-07T19:58:17;98245.34;;;13.84;67.67
22311;BME280;11323;49.610;11.016;2023-04-07T20:03:20;98236.63;;;13.83;68.00
22311;BME280;11323;49.610;11.016;2023-04-07T20:08:20;98234.19;;;13.82;67.58
22311;BME280;11323;49.610;11.016;2023-04-07T20:13:21;98242.19;;;13.80;67.83
22311;BME280;11323;49.610;11.016;2023-04-07T20:18:23;98245.00;;;13.79;67.33
22311;BME280;11323;49.610;11.016;2023-04-07T20:23:23;98247.28;;;13.82;67.58
22311;BME280;11323;49.610;11.016;2023-04-07T20:28:23;98240.56;;;13.79;67.41
22311;BME280;11323;49.610;11.016;2023-04-07T20:33:24;98255.16;;;13.82;67.80
22311;BME280;11323;49.610;11.016;2023-04-07T20:38:25;98255.47;;;13.79;67.76
22311;BME280;11323;49.610;11.016;2023-04-07T20:43:25;98254.13;;;13.74;67.74
22311;BME280;11323;49.610;11.016;2023-04-07T20:48:26;98257.41;;;13.77;67.52
22311;BME280;11323;49.610;11.016;2023-04-07T20:53:27;98266.25;;;13.75;67.43
22311;BME280;11323;49.610;11.016;2023-04-07T20:58:27;98264.31;;;13.78;67.29
22311;BME280;11323;49.610;11.016;2023-04-07T21:03:28;98264.31;;;13.78;67.75
22311;BME280;11323;49.610;11.016;2023-04-07T21:08:29;98270.53;;;13.77;67.84
22311;BME280;11323;49.610;11.016;2023-04-07T21:13:30;98276.72;;;13.75;67.51
22311;BME280;11323;49.610;11.016;2023-04-07T21:18:31;98275.44;;;13.71;67.69
22311;BME280;11323;49.610;11.016;2023-04-07T21:23:31;98278.38;;;13.77;67.81
22311;BME280;11323;49.610;11.016;2023-04-07T21:28:31;98286.22;;;13.77;68.11
22311;BME280;11323;49.610;11.016;2023-04-07T21:33:32;98288.53;;;13.80;68.01
22311;BME280;11323;49.610;11.016;2023-04-07T21:38:33;98280.69;;;13.71;68.14
22311;BME280;11323;49.610;11.016;2023-04-07T21:43:33;98300.31;;;13.75;67.67
22311;BME280;11323;49.610;11.016;2023-04-07T21:48:34;98294.56;;;13.72;67.31
22311;BME280;11323;49.610;11.016;2023-04-07T21:53:34;98288.34;;;13.73;67.60
22311;BME280;11323;49.610;11.016;2023-04-07T21:58:35;98296.03;;;13.74;67.86
22311;BME280;11323;49.610;11.016;2023-04-07T22:03:36;98301.47;;;13.73;67.99
22311;BME280;11323;49.610;11.016;2023-04-07T22:08:36;98294.75;;;13.70;67.52
22311;BME280;11323;49.610;11.016;2023-04-07T22:13:37;98294.75;;;13.70;67.83
22311;BME280;11323;49.610;11.016;2023-04-07T22:18:37;98298.03;;;13.72;67.67
22311;BME280;11323;49.610;11.016;2023-04-07T22:23:38;98301.13;;;13.68;67.73
22311;BME280;11323;49.610;11.016;2023-04-07T22:28:38;98315.69;;;13.70;67.42
22311;BME280;11323;49.610;11.016;2023-04-07T22:33:38;98313.41;;;13.67;67.90
22311;BME280;11323;49.610;11.016;2023-04-07T22:38:39;98304.72;;;13.67;67.74
22311;BME280;11323;49.610;11.016;2023-04-07T22:43:39;98300.28;;;13.67;67.69
22311;BME280;11323;49.610;11.016;2023-04-07T22:48:39;98310.94;;;13.66;67.63
22311;BME280;11323;49.610;11.016;2023-04-07T22:53:40;98322.09;;;13.68;68.03
22311;BME280;11323;49.610;11.016;2023-04-07T22:58:40;98309.31;;;13.65;67.88
22311;BME280;11323;49.610;11.016;2023-04-07T23:03:41;98326.50;;;13.67;67.71
22311;BME280;11323;49.610;11.016;2023-04-07T23:08:41;98321.56;;;13.64;67.81
22311;BME280;11323;49.610;11.016;2023-04-07T23:13:41;98322.03;;;13.59;68.03
22311;BME280;11323;49.610;11.016;2023-04-07T23:18:42;98332.03;;;13.64;67.77
22311;BME280;11323;49.610;11.016;2023-04-07T23:23:42;98337.94;;;13.66;67.84
22311;BME280;11323;49.610;11.016;2023-04-07T23:28:43;98338.25;;;13.63;68.18
22311;BME280;11323;49.610;11.016;2023-04-07T23:33:43;98341.72;;;13.64;68.01
22311;BME280;11323;49.610;11.016;2023-04-07T23:38:44;98337.63;;;13.61;67.67
22311;BME280;11323;49.610;11.016;2023-04-07T23:43:44;98341.72;;;13.64;67.84
22311;BME280;11323;49.610;11.016;2023-04-07T23:48:44;98338.25;;;13.63;68.05
22311;BME280;11323;49.610;11.016;2023-04-07T23:53:45;98338.72;;;13.58;67.96
22311;BME280;11323;49.610;11.016;2023-04-07T23:58:46;98335.97;;;13.60;67.91
